Time;durP1;ratioP1;P1;durP2;ratioP2;P2;SDS_P1;SDS_P2;PMS_P1;PMS_P2;Temp;Humidity;BMP_temperature;BMP_pressure;BME280_temperature;BME280_humidity;BME280_pressure;Samples;Min_cycle;Max_cycle;Signal;HPM_P1;HPM_P2
2022/09/14 00:03:41;;;;;;;;;;;15.10;99.90;;;;;;12570889;28;20308;-38
2022/09/14 00:09:43;;;;;;;;;;;14.90;99.90;;;;;;12568084;28;19928;-38
2022/09/14 00:15:45;;;;;;;;;;;15.20;99.90;;;;;;12560902;28;19925;-38
2022/09/14 00:21:49;;;;;;;;;;;15.40;99.90;;;;;;12570878;28;19935;-40
2022/09/14 00:27:51;;;;;;;;;;;15.20;99.90;;;;;;12573014;28;19925;-38
2022/09/14 00:33:53;;;;;;;;;;;15.00;99.90;;;;;;12575734;28;19928;-39
2022/09/14 00:39:55;;;;;;;;;;;15.10;99.90;;;;;;12564116;28;19931;-39
2022/09/14 00:45:58;;;;;;;;;;;14.90;99.90;;;;;;12556832;28;19931;-38
2022/09/14 00:52:08;;;;;;;;;;;15.00;99.90;;;;;;12584902;28;20033;-38
2022/09/14 00:58:09;;;;;;;;;;;15.10;99.90;;;;;;12571883;28;20391;-38
2022/09/14 01:04:11;;;;;;;;;;;15.00;99.90;;;;;;12593369;28;19924;-39
2022/09/14 01:10:42;;;;;;;;;;;14.80;99.90;;;;;;12597675;28;19925;-38
2022/09/14 01:16:52;;;;;;;;;;;14.90;99.90;;;;;;12565300;28;20265;-40
2022/09/14 01:22:57;;;;;;;;;;;14.80;99.90;;;;;;12567347;28;19935;-38
2022/09/14 01:29:02;;;;;;;;;;;14.70;99.90;;;;;;12574434;28;20267;-39
2022/09/14 01:35:07;;;;;;;;;;;14.80;99.90;;;;;;12574352;28;19933;-38
2022/09/14 01:41:15;;;;;;;;;;;14.60;99.90;;;;;;12586439;28;19935;-39
2022/09/14 01:47:26;;;;;;;;;;;14.60;99.90;;;;;;12566233;28;20406;-39
2022/09/14 01:53:42;;;;;;;;;;;14.60;99.90;;;;;;12580718;28;19939;-39
2022/09/14 01:59:45;;;;;;;;;;;14.60;99.90;;;;;;12559790;28;20296;-38
2022/09/14 02:05:53;;;;;;;;;;;14.70;99.90;;;;;;12573904;28;19925;-38
2022/09/14 02:11:59;;;;;;;;;;;14.50;99.90;;;;;;12583650;28;19925;-39
2022/09/14 02:18:01;;;;;;;;;;;14.50;99.90;;;;;;12579741;28;19928;-38
2022/09/14 02:24:03;;;;;;;;;;;14.40;99.90;;;;;;12563017;28;19925;-38
2022/09/14 02:30:05;;;;;;;;;;;14.20;99.90;;;;;;12522739;28;19925;-39
2022/09/14 02:36:12;;;;;;;;;;;14.20;99.90;;;;;;12504310;28;20296;-38
2022/09/14 02:42:35;;;;;;;;;;;14.30;99.90;;;;;;12520463;28;19932;-40
2022/09/14 02:48:56;;;;;;;;;;;14.20;99.90;;;;;;12494776;28;19940;-40
2022/09/14 02:55:18;;;;;;;;;;;14.10;99.90;;;;;;12528224;28;19935;-38
2022/09/14 03:01:20;;;;;;;;;;;14.10;99.90;;;;;;12530967;28;20368;-38
2022/09/14 03:07:22;;;;;;;;;;;14.20;99.90;;;;;;12536061;28;20399;-38
2022/09/14 03:13:24;;;;;;;;;;;14.10;99.90;;;;;;12522652;28;19925;-38
2022/09/14 03:19:25;;;;;;;;;;;14.10;99.90;;;;;;12512891;28;19925;-38
2022/09/14 03:25:27;;;;;;;;;;;14.10;99.90;;;;;;12521576;28;19932;-39
2022/09/14 03:31:29;;;;;;;;;;;14.00;99.90;;;;;;12514291;28;19940;-39
2022/09/14 03:37:30;;;;;;;;;;;14.00;99.90;;;;;;12521065;28;20407;-38
2022/09/14 03:43:32;;;;;;;;;;;13.90;99.90;;;;;;12513272;28;19932;-38
2022/09/14 03:49:34;;;;;;;;;;;13.60;99.90;;;;;;12521557;28;19947;-38
2022/09/14 03:55:38;;;;;;;;;;;13.70;99.90;;;;;;12523200;28;19933;-39
2022/09/14 04:01:41;;;;;;;;;;;13.70;99.90;;;;;;12503543;28;19932;-38
2022/09/14 04:07:42;;;;;;;;;;;13.70;99.90;;;;;;12503047;28;19929;-38
2022/09/14 04:13:44;;;;;;;;;;;13.60;99.90;;;;;;12535654;28;19924;-38
2022/09/14 04:19:46;;;;;;;;;;;13.50;99.90;;;;;;12515086;28;20293;-38
2022/09/14 04:25:48;;;;;;;;;;;13.40;99.90;;;;;;12533202;28;19928;-39
2022/09/14 04:31:49;;;;;;;;;;;13.60;99.90;;;;;;12575627;28;19931;-38
2022/09/14 04:37:51;;;;;;;;;;;13.60;99.90;;;;;;12564205;28;20284;-39
2022/09/14 04:43:53;;;;;;;;;;;13.40;99.90;;;;;;12557489;28;19936;-38
2022/09/14 04:49:55;;;;;;;;;;;13.50;99.90;;;;;;12571183;28;19928;-38
2022/09/14 04:56:00;;;;;;;;;;;13.50;99.90;;;;;;12564664;28;19924;-38
2022/09/14 05:02:02;;;;;;;;;;;13.40;99.90;;;;;;12567347;28;19925;-38
2022/09/14 05:08:03;;;;;;;;;;;13.40;99.90;;;;;;12561078;28;19928;-38
2022/09/14 05:14:05;;;;;;;;;;;13.50;99.90;;;;;;12581119;28;19924;-38
2022/09/14 05:20:07;;;;;;;;;;;13.50;99.90;;;;;;12574880;28;19924;-39
2022/09/14 05:26:09;;;;;;;;;;;13.50;99.90;;;;;;12525688;28;20038;-38
2022/09/14 05:32:11;;;;;;;;;;;13.50;99.90;;;;;;12571538;28;20265;-38
2022/09/14 05:38:13;;;;;;;;;;;13.40;99.90;;;;;;12572454;28;19924;-39
2022/09/14 05:44:15;;;;;;;;;;;13.40;99.90;;;;;;12575955;28;19924;-38
2022/09/14 05:50:16;;;;;;;;;;;13.40;99.90;;;;;;12577938;28;19948;-39
2022/09/14 05:56:18;;;;;;;;;;;13.40;99.90;;;;;;12570112;28;20010;-39
2022/09/14 06:02:20;;;;;;;;;;;13.60;99.90;;;;;;12567727;28;19948;-38
2022/09/14 06:08:22;;;;;;;;;;;13.60;99.90;;;;;;12570090;28;20292;-38
2022/09/14 06:14:24;;;;;;;;;;;13.70;99.90;;;;;;12587882;28;20307;-39
2022/09/14 06:20:25;;;;;;;;;;;13.80;99.90;;;;;;12576355;28;20288;-38
2022/09/14 06:26:27;;;;;;;;;;;13.80;99.90;;;;;;12569432;28;19925;-38
2022/09/14 06:32:29;;;;;;;;;;;13.90;99.90;;;;;;12571029;28;19954;-38
2022/09/14 06:38:31;;;;;;;;;;;14.00;99.90;;;;;;12582189;28;19931;-38
2022/09/14 06:44:33;;;;;;;;;;;14.10;99.90;;;;;;12571294;28;19928;-38
2022/09/14 06:50:34;;;;;;;;;;;14.00;99.90;;;;;;12580598;28;19931;-39
2022/09/14 06:56:37;;;;;;;;;;;14.20;99.90;;;;;;12573430;28;19936;-39
2022/09/14 07:02:39;;;;;;;;;;;14.20;99.90;;;;;;12576039;28;19932;-39
2022/09/14 07:08:42;;;;;;;;;;;14.30;99.90;;;;;;12566800;28;19929;-38
2022/09/14 07:14:43;;;;;;;;;;;14.40;99.90;;;;;;12586603;28;19924;-39
2022/09/14 07:20:45;;;;;;;;;;;14.40;99.90;;;;;;12575328;28;20226;-39
2022/09/14 07:26:47;;;;;;;;;;;14.50;99.90;;;;;;12565190;28;20293;-40
2022/09/14 07:32:49;;;;;;;;;;;14.60;99.90;;;;;;12577112;28;20308;-39
2022/09/14 07:38:51;;;;;;;;;;;14.60;99.90;;;;;;12574529;28;20300;-38
2022/09/14 07:44:54;;;;;;;;;;;14.80;99.90;;;;;;12569329;28;19925;-39
2022/09/14 07:51:02;;;;;;;;;;;14.90;99.90;;;;;;12569602;28;19928;-38
2022/09/14 07:57:04;;;;;;;;;;;15.00;99.90;;;;;;12580029;28;19929;-38
2022/09/14 08:03:05;;;;;;;;;;;15.20;99.90;;;;;;12565499;28;19926;-39
2022/09/14 08:09:07;;;;;;;;;;;15.20;99.90;;;;;;12569832;28;19932;-39
2022/09/14 08:15:09;;;;;;;;;;;15.40;99.90;;;;;;12583071;28;19928;-39
2022/09/14 08:21:12;;;;;;;;;;;15.40;99.90;;;;;;12569218;28;19924;-39
2022/09/14 08:27:14;;;;;;;;;;;15.50;99.90;;;;;;12562843;28;20308;-39
2022/09/14 08:33:17;;;;;;;;;;;15.50;99.90;;;;;;12564391;28;19932;-38
2022/09/14 08:39:19;;;;;;;;;;;15.50;99.90;;;;;;12577774;28;19925;-39
2022/09/14 08:45:22;;;;;;;;;;;15.70;99.90;;;;;;12577320;28;19931;-39
2022/09/14 08:51:24;;;;;;;;;;;15.80;99.90;;;;;;12562676;28;19924;-39
2022/09/14 08:57:44;;;;;;;;;;;15.80;99.90;;;;;;12567961;28;19932;-38
2022/09/14 09:03:58;;;;;;;;;;;15.80;99.90;;;;;;12570557;28;20296;-39
2022/09/14 09:10:03;;;;;;;;;;;15.90;99.90;;;;;;12578677;28;20512;-40
2022/09/14 09:16:08;;;;;;;;;;;15.90;99.90;;;;;;12583100;28;19943;-39
2022/09/14 09:22:12;;;;;;;;;;;16.10;99.90;;;;;;12573479;28;20029;-39
2022/09/14 09:28:15;;;;;;;;;;;16.20;99.90;;;;;;12578032;28;19936;-38
2022/09/14 09:34:21;;;;;;;;;;;16.20;99.90;;;;;;12564145;28;20022;-39
2022/09/14 09:40:49;;;;;;;;;;;16.30;99.90;;;;;;12578556;28;19925;-39
2022/09/14 09:46:55;;;;;;;;;;;16.20;99.90;;;;;;12578242;28;19932;-39
2022/09/14 09:52:58;;;;;;;;;;;16.10;99.90;;;;;;12571781;28;19925;-39
2022/09/14 09:59:28;;;;;;;;;;;15.90;99.90;;;;;;12566053;28;19951;-39
2022/09/14 10:05:33;;;;;;;;;;;15.80;99.90;;;;;;12552409;28;19924;-38
2022/09/14 10:11:36;;;;;;;;;;;15.90;99.90;;;;;;12553302;28;19935;-39
2022/09/14 10:17:38;;;;;;;;;;;15.90;99.90;;;;;;12575553;28;19968;-38
2022/09/14 10:23:40;;;;;;;;;;;15.90;99.90;;;;;;12585051;28;19929;-39
2022/09/14 10:29:41;;;;;;;;;;;15.90;99.90;;;;;;12510247;28;20441;-38
2022/09/14 10:35:55;;;;;;;;;;;16.10;99.90;;;;;;12530076;28;19936;-39
2022/09/14 10:42:00;;;;;;;;;;;16.10;99.90;;;;;;12529262;28;19925;-40
2022/09/14 10:48:20;;;;;;;;;;;16.20;99.90;;;;;;12534629;28;19937;-40
2022/09/14 10:54:36;;;;;;;;;;;16.10;99.90;;;;;;12492790;28;20403;-39
2022/09/14 11:00:44;;;;;;;;;;;16.10;99.90;;;;;;12525727;28;20389;-38
2022/09/14 11:07:05;;;;;;;;;;;16.20;99.90;;;;;;12532611;28;20035;-39
2022/09/14 11:13:33;;;;;;;;;;;16.20;99.90;;;;;;12530931;28;19929;-39
2022/09/14 11:19:34;;;;;;;;;;;16.20;99.90;;;;;;12518124;28;20311;-39
2022/09/14 11:25:42;;;;;;;;;;;16.30;99.90;;;;;;12544746;28;19935;-40
2022/09/14 11:31:52;;;;;;;;;;;16.30;99.90;;;;;;12579292;28;19929;-39
2022/09/14 11:38:24;;;;;;;;;;;16.30;99.90;;;;;;12567740;28;20373;-38
2022/09/14 11:44:46;;;;;;;;;;;16.20;99.90;;;;;;12568424;28;19925;-39
2022/09/14 11:50:50;;;;;;;;;;;16.30;99.90;;;;;;12565953;28;19986;-39
2022/09/14 11:57:02;;;;;;;;;;;16.20;99.90;;;;;;12575082;28;19932;-38
2022/09/14 12:03:03;;;;;;;;;;;16.10;99.90;;;;;;12568145;28;20363;-39
2022/09/14 12:09:19;;;;;;;;;;;16.20;99.90;;;;;;12570696;28;19932;-40
2022/09/14 12:15:24;;;;;;;;;;;16.10;99.90;;;;;;12568199;28;20349;-38
2022/09/14 12:21:27;;;;;;;;;;;16.20;99.90;;;;;;12572864;28;20023;-39
2022/09/14 12:27:30;;;;;;;;;;;16.20;99.90;;;;;;12568730;28;20796;-40
2022/09/14 12:33:31;;;;;;;;;;;16.20;99.90;;;;;;12570546;28;19924;-38
2022/09/14 12:39:34;;;;;;;;;;;16.10;99.90;;;;;;12568411;28;19929;-38
2022/09/14 12:45:59;;;;;;;;;;;16.20;99.90;;;;;;12578284;28;19947;-38
2022/09/14 12:52:03;;;;;;;;;;;16.20;99.90;;;;;;12573360;28;19935;-39
2022/09/14 12:58:20;;;;;;;;;;;16.20;99.90;;;;;;12582040;28;20369;-38
2022/09/14 13:04:26;;;;;;;;;;;16.20;99.90;;;;;;12574431;28;19924;-39
2022/09/14 13:10:35;;;;;;;;;;;16.10;99.90;;;;;;12579393;28;19932;-38
2022/09/14 13:16:40;;;;;;;;;;;16.10;99.90;;;;;;12579797;28;19932;-38
2022/09/14 13:22:42;;;;;;;;;;;16.20;99.90;;;;;;12580683;28;19994;-38
2022/09/14 13:28:45;;;;;;;;;;;16.20;99.90;;;;;;12581072;28;19939;-38
2022/09/14 13:34:47;;;;;;;;;;;16.20;99.90;;;;;;12567916;28;20311;-38
2022/09/14 13:40:49;;;;;;;;;;;16.20;99.90;;;;;;12568534;28;19933;-38
2022/09/14 13:46:51;;;;;;;;;;;16.20;99.90;;;;;;12573786;28;20273;-38
2022/09/14 13:52:53;;;;;;;;;;;16.20;99.90;;;;;;12563608;28;19925;-38
2022/09/14 13:59:07;;;;;;;;;;;16.20;99.90;;;;;;12584876;28;19966;-38
2022/09/14 14:05:18;;;;;;;;;;;16.30;99.90;;;;;;12569194;28;19933;-38
2022/09/14 14:11:35;;;;;;;;;;;16.30;99.90;;;;;;12580173;28;20384;-38
2022/09/14 14:17:37;;;;;;;;;;;16.30;99.90;;;;;;12584659;28;20292;-38
2022/09/14 14:23:41;;;;;;;;;;;16.40;99.90;;;;;;12573108;28;20288;-38
2022/09/14 14:30:19;;;;;;;;;;;16.30;99.90;;;;;;12580399;28;19978;-38
2022/09/14 14:36:20;;;;;;;;;;;16.30;99.90;;;;;;12548599;28;19932;-38
2022/09/14 14:42:22;;;;;;;;;;;16.30;99.90;;;;;;12562548;28;19924;-38
2022/09/14 14:48:25;;;;;;;;;;;16.40;99.90;;;;;;12580741;28;19925;-38
2022/09/14 14:54:27;;;;;;;;;;;16.40;99.90;;;;;;12564082;28;19928;-38
2022/09/14 15:00:31;;;;;;;;;;;16.40;99.90;;;;;;12570095;28;19928;-38
2022/09/14 15:06:32;;;;;;;;;;;16.40;99.90;;;;;;12563925;28;20341;-39
2022/09/14 15:12:34;;;;;;;;;;;16.40;99.90;;;;;;12571095;28;19932;-38
2022/09/14 15:18:36;;;;;;;;;;;16.40;99.90;;;;;;12579901;28;19924;-39
2022/09/14 15:24:37;;;;;;;;;;;16.40;99.90;;;;;;12571803;28;19924;-38
2022/09/14 15:30:40;;;;;;;;;;;16.50;99.90;;;;;;12573163;28;19948;-38
2022/09/14 15:36:46;;;;;;;;;;;16.40;99.90;;;;;;12567467;28;19924;-38
2022/09/14 15:42:48;;;;;;;;;;;16.40;99.90;;;;;;12573637;28;20288;-38
2022/09/14 15:48:49;;;;;;;;;;;16.50;99.90;;;;;;12558082;28;19932;-39
2022/09/14 15:54:51;;;;;;;;;;;16.40;99.90;;;;;;12572401;28;19924;-39
2022/09/14 16:00:53;;;;;;;;;;;16.30;99.90;;;;;;12580877;28;19925;-38
2022/09/14 16:06:54;;;;;;;;;;;16.30;99.90;;;;;;12562220;28;19930;-38
2022/09/14 16:12:56;;;;;;;;;;;16.10;99.90;;;;;;12576959;28;19983;-38
2022/09/14 16:19:02;;;;;;;;;;;16.20;99.90;;;;;;12561187;28;19931;-38
2022/09/14 16:25:04;;;;;;;;;;;16.20;99.90;;;;;;12565797;28;19939;-38
2022/09/14 16:31:10;;;;;;;;;;;16.20;99.90;;;;;;12557578;28;20309;-39
2022/09/14 16:37:12;;;;;;;;;;;16.10;99.90;;;;;;12554615;28;19936;-38
2022/09/14 16:43:14;;;;;;;;;;;16.10;99.90;;;;;;12552673;28;19931;-38
2022/09/14 16:49:16;;;;;;;;;;;16.00;99.90;;;;;;12576340;28;19929;-38
2022/09/14 16:55:18;;;;;;;;;;;16.00;99.90;;;;;;12567266;28;19935;-38
2022/09/14 17:01:27;;;;;;;;;;;15.90;99.90;;;;;;12569658;28;20277;-39
2022/09/14 17:07:29;;;;;;;;;;;15.90;99.90;;;;;;12569248;28;19929;-38
2022/09/14 17:13:31;;;;;;;;;;;15.80;99.90;;;;;;12574204;28;19925;-38
2022/09/14 17:19:33;;;;;;;;;;;15.70;99.90;;;;;;12574604;28;20346;-40
2022/09/14 17:25:34;;;;;;;;;;;15.60;99.90;;;;;;12569195;28;19925;-37
2022/09/14 17:31:38;;;;;;;;;;;15.40;99.90;;;;;;12577991;28;19931;-38
2022/09/14 17:37:40;;;;;;;;;;;15.30;99.90;;;;;;12561645;28;19935;-38
2022/09/14 17:43:41;;;;;;;;;;;15.30;99.90;;;;;;12589653;28;19929;-38
2022/09/14 17:49:43;;;;;;;;;;;15.20;99.90;;;;;;12571205;28;19924;-38
2022/09/14 17:55:45;;;;;;;;;;;15.10;99.90;;;;;;12580755;28;20380;-38
2022/09/14 18:01:47;;;;;;;;;;;15.10;99.90;;;;;;12575622;28;19935;-38
2022/09/14 18:07:50;;;;;;;;;;;15.00;99.90;;;;;;12581566;28;20178;-38
2022/09/14 18:13:51;;;;;;;;;;;15.00;99.90;;;;;;12583050;28;19931;-38
2022/09/14 18:19:57;;;;;;;;;;;14.80;99.90;;;;;;12570684;28;19925;-38
2022/09/14 18:25:59;;;;;;;;;;;14.80;99.90;;;;;;12568193;28;19924;-39
2022/09/14 18:32:01;;;;;;;;;;;14.80;99.90;;;;;;12568239;28;19924;-38
2022/09/14 18:38:05;;;;;;;;;;;14.70;99.90;;;;;;12554099;28;19932;-38
2022/09/14 18:44:07;;;;;;;;;;;14.70;99.90;;;;;;12543393;28;20372;-40
2022/09/14 18:50:08;;;;;;;;;;;14.70;99.90;;;;;;12575717;28;19924;-38
2022/09/14 18:56:11;;;;;;;;;;;14.60;99.90;;;;;;12572407;28;19925;-37
2022/09/14 19:02:13;;;;;;;;;;;14.60;99.90;;;;;;12593520;28;20303;-39
2022/09/14 19:08:15;;;;;;;;;;;14.50;99.90;;;;;;12579576;28;19931;-38
2022/09/14 19:14:19;;;;;;;;;;;14.50;99.90;;;;;;12578998;28;19935;-39
2022/09/14 19:20:21;;;;;;;;;;;14.50;99.90;;;;;;12568306;28;20264;-41
2022/09/14 19:26:23;;;;;;;;;;;14.50;99.90;;;;;;12557185;28;19935;-40
2022/09/14 19:32:25;;;;;;;;;;;14.40;99.90;;;;;;12564952;28;19999;-38
2022/09/14 19:38:27;;;;;;;;;;;14.40;99.90;;;;;;12568278;28;20546;-39
2022/09/14 19:44:29;;;;;;;;;;;14.40;99.90;;;;;;12550910;28;19924;-38
2022/09/14 19:50:30;;;;;;;;;;;14.40;99.90;;;;;;12569415;28;19936;-41
2022/09/14 19:56:32;;;;;;;;;;;14.40;99.90;;;;;;12572574;28;19932;-38
2022/09/14 20:02:34;;;;;;;;;;;14.30;99.90;;;;;;12581490;28;19925;-39
2022/09/14 20:08:36;;;;;;;;;;;14.30;99.90;;;;;;12579230;28;19924;-40
2022/09/14 20:14:37;;;;;;;;;;;14.40;99.90;;;;;;12586936;28;19925;-41
2022/09/14 20:20:41;;;;;;;;;;;14.40;99.90;;;;;;12554823;28;20349;-40
2022/09/14 20:26:46;;;;;;;;;;;14.50;99.90;;;;;;12556420;28;19931;-38
2022/09/14 20:32:48;;;;;;;;;;;14.50;99.90;;;;;;12553758;28;19924;-38
2022/09/14 20:38:51;;;;;;;;;;;14.50;99.90;;;;;;12564980;28;20380;-38
2022/09/14 20:44:52;;;;;;;;;;;14.40;99.90;;;;;;12563380;28;20077;-38
2022/09/14 20:50:54;;;;;;;;;;;14.20;99.90;;;;;;12567985;28;20403;-38
2022/09/14 20:56:56;;;;;;;;;;;14.10;99.90;;;;;;12570311;28;19928;-38
2022/09/14 21:03:04;;;;;;;;;;;14.00;99.90;;;;;;12549226;28;19925;-39
2022/09/14 21:09:06;;;;;;;;;;;14.10;99.90;;;;;;12577508;28;19924;-40
2022/09/14 21:15:08;;;;;;;;;;;14.10;99.90;;;;;;12594192;28;19929;-39
2022/09/14 21:21:11;;;;;;;;;;;14.10;99.90;;;;;;12589728;28;19933;-38
2022/09/14 21:27:13;;;;;;;;;;;14.10;99.90;;;;;;12571611;28;19933;-38
2022/09/14 21:33:15;;;;;;;;;;;14.10;99.90;;;;;;12575602;28;19932;-38
2022/09/14 21:39:20;;;;;;;;;;;14.00;99.90;;;;;;12567082;28;19928;-39
2022/09/14 21:45:21;;;;;;;;;;;14.00;99.90;;;;;;12576265;28;19932;-38
2022/09/14 21:51:25;;;;;;;;;;;14.00;99.90;;;;;;12562890;28;19947;-38
2022/09/14 21:57:26;;;;;;;;;;;14.00;99.90;;;;;;12574869;28;20331;-38
2022/09/14 22:03:28;;;;;;;;;;;14.10;99.90;;;;;;12570176;28;19924;-38
2022/09/14 22:09:30;;;;;;;;;;;14.00;99.90;;;;;;12579288;28;19928;-38
2022/09/14 22:15:32;;;;;;;;;;;14.00;99.90;;;;;;12573174;28;19929;-38
2022/09/14 22:21:35;;;;;;;;;;;13.90;99.90;;;;;;12556933;28;20014;-38
2022/09/14 22:27:37;;;;;;;;;;;13.90;99.90;;;;;;12571353;28;19936;-38
2022/09/14 22:33:39;;;;;;;;;;;13.90;99.90;;;;;;12571952;28;20403;-39
2022/09/14 22:39:41;;;;;;;;;;;14.00;99.90;;;;;;12569009;28;19965;-38
2022/09/14 22:45:42;;;;;;;;;;;14.00;99.90;;;;;;12577058;28;20368;-38
2022/09/14 22:51:44;;;;;;;;;;;13.90;99.90;;;;;;12577704;28;19925;-38
2022/09/14 22:57:46;;;;;;;;;;;13.90;99.90;;;;;;12579052;28;19951;-38
2022/09/14 23:03:47;;;;;;;;;;;13.90;99.90;;;;;;12582776;28;19931;-38
2022/09/14 23:09:49;;;;;;;;;;;13.90;99.90;;;;;;12582758;28;20376;-38
2022/09/14 23:15:51;;;;;;;;;;;13.90;99.90;;;;;;12584672;28;19928;-38
2022/09/14 23:21:52;;;;;;;;;;;13.90;99.90;;;;;;12582327;28;19929;-39
2022/09/14 23:27:54;;;;;;;;;;;14.00;99.90;;;;;;12557762;28;19967;-38
2022/09/14 23:33:57;;;;;;;;;;;13.90;99.90;;;;;;12559997;28;19928;-38
2022/09/14 23:39:59;;;;;;;;;;;13.90;99.90;;;;;;12572371;28;19931;-38
2022/09/14 23:46:01;;;;;;;;;;;13.80;99.90;;;;;;12574976;28;19932;-39
2022/09/14 23:52:02;;;;;;;;;;;13.80;99.90;;;;;;12579874;28;19924;-38
2022/09/14 23:58:04;;;;;;;;;;;13.80;99.90;;;;;;12583285;28;19931;-38
